Time;durP1;ratioP1;P1;durP2;ratioP2;P2;SDS_P1;SDS_P2;PMS_P1;PMS_P2;Temp;Humidity;BMP_temperature;BMP_pressure;BME280_temperature;BME280_humidity;BME280_pressure;Samples;Min_cycle;Max_cycle;Signal;HPM_P1;HPM_P2
2022/06/11 00:01:48;;;;;;;12.48;7.97;;;;;;;16.84;100.00;98860.09;4517206;31;20652;-73
2022/06/11 00:04:26;;;;;;;10.10;7.50;;;;;;;16.77;100.00;98867.06;4516734;31;20092;-73
2022/06/11 00:07:01;;;;;;;10.98;8.10;;;;;;;16.75;100.00;98857.69;4517086;31;20099;-73
2022/06/11 00:09:30;;;;;;;11.12;8.18;;;;;;;16.75;100.00;98869.09;4516743;31;20088;-73
2022/06/11 00:11:58;;;;;;;14.30;8.80;;;;;;;16.67;100.00;98866.50;4510898;31;20084;-73
2022/06/11 00:14:28;;;;;;;12.20;8.70;;;;;;;16.58;100.00;98863.06;4509257;31;20482;-73
2022/06/11 00:16:57;;;;;;;17.08;8.38;;;;;;;16.54;100.00;98860.94;4512663;31;20099;-73
2022/06/11 00:19:25;;;;;;;12.65;9.10;;;;;;;16.50;100.00;98857.81;4507312;31;20182;-73
2022/06/11 00:21:53;;;;;;;12.80;9.20;;;;;;;16.46;100.00;98849.41;4516918;31;20115;-73
2022/06/11 00:24:23;;;;;;;12.90;9.00;;;;;;;16.43;100.00;98862.97;4502510;31;20457;-73
2022/06/11 00:26:52;;;;;;;12.80;8.57;;;;;;;16.37;100.00;98857.56;4516913;31;20156;-73
2022/06/11 00:29:21;;;;;;;14.75;8.77;;;;;;;16.36;100.00;98859.34;4516534;31;20554;-73
2022/06/11 00:31:49;;;;;;;11.68;8.60;;;;;;;16.34;100.00;98863.19;4508509;31;20112;-73
2022/06/11 00:34:17;;;;;;;13.48;8.77;;;;;;;16.28;100.00;98856.75;4512486;31;20124;-73
2022/06/11 00:36:45;;;;;;;14.30;9.13;;;;;;;16.30;100.00;98854.75;4516768;31;20087;-73
2022/06/11 00:39:16;;;;;;;13.93;8.82;;;;;;;16.24;100.00;98850.16;4516677;31;20442;-73
2022/06/11 00:41:46;;;;;;;11.23;7.97;;;;;;;16.28;100.00;98857.56;4516633;31;20084;-73
2022/06/11 00:44:14;;;;;;;11.02;8.43;;;;;;;16.29;100.00;98863.69;4516341;31;20103;-73
2022/06/11 00:46:57;;;;;;;10.40;8.13;;;;;;;16.32;100.00;98865.97;4516647;31;20087;-73
2022/06/11 00:49:30;;;;;;;11.27;7.82;;;;;;;16.40;100.00;98865.97;4502055;31;20118;-73
2022/06/11 00:52:33;;;;;;;9.77;8.00;;;;;;;16.47;100.00;98869.56;4502403;31;20567;-73
2022/06/11 00:55:00;;;;;;;10.57;8.05;;;;;;;16.50;100.00;98863.94;4513280;31;20130;-73
2022/06/11 00:57:31;;;;;;;11.82;7.62;;;;;;;16.52;100.00;98868.22;4516631;31;20092;-73
2022/06/11 01:00:05;;;;;;;13.13;8.18;;;;;;;16.57;100.00;98871.19;4502211;31;20115;-73
2022/06/11 01:02:32;;;;;;;9.95;7.82;;;;;;;16.62;100.00;98863.53;4516286;31;20244;-73
2022/06/11 01:05:01;;;;;;;12.10;7.97;;;;;;;16.66;99.50;98865.66;4516312;31;20130;-73
2022/06/11 01:07:53;;;;;;;11.25;8.10;;;;;;;16.73;98.57;98857.87;4516436;31;20088;-73
2022/06/11 01:10:33;;;;;;;15.02;7.03;;;;;;;16.82;97.28;98854.16;4516346;31;20087;-73
2022/06/11 01:13:15;;;;;;;11.10;7.47;;;;;;;16.89;96.42;98859.59;4501839;31;20111;-73
2022/06/11 01:15:50;;;;;;;10.45;6.93;;;;;;;16.85;96.37;98861.75;4516400;31;20083;-73
2022/06/11 01:18:32;;;;;;;10.80;7.55;;;;;;;16.93;96.08;98852.16;4501851;31;20092;-73
2022/06/11 01:21:30;;;;;;;12.02;7.75;;;;;;;16.90;95.75;98855.97;4501888;31;20110;-73
2022/06/11 01:24:06;;;;;;;11.20;6.85;;;;;;;16.96;95.62;98857.09;4495901;31;20096;-73
2022/06/11 01:27:04;;;;;;;12.88;7.53;;;;;;;16.97;95.15;98853.44;4516204;31;20107;-73
2022/06/11 01:29:57;;;;;;;9.30;6.75;;;;;;;16.96;94.99;98857.09;4501988;31;20127;-73
2022/06/11 01:33:07;;;;;;;8.90;6.65;;;;;;;16.96;94.60;98855.25;4427378;32;20156;-73
2022/06/11 01:35:57;;;;;;;10.75;6.85;;;;;;;16.93;94.74;98852.16;4398123;32;20522;-73
2022/06/11 01:38:30;;;;;;;8.95;6.57;;;;;;;16.97;94.21;98862.22;4390585;32;20491;-73
2022/06/11 01:41:25;;;;;;;9.25;6.65;;;;;;;16.99;93.62;98862.03;4398684;32;20140;-73
2022/06/11 01:43:58;;;;;;;10.50;6.75;;;;;;;16.94;93.77;98857.25;4403469;32;20105;-73
2022/06/11 01:46:29;;;;;;;10.05;6.22;;;;;;;17.01;92.62;98860.03;4395717;32;20125;-73
2022/06/11 01:49:01;;;;;;;9.57;6.60;;;;;;;17.09;92.06;98869.72;4400502;32;20094;-73
2022/06/11 01:51:49;;;;;;;11.63;6.62;;;;;;;17.03;91.87;98865.94;4404708;32;20144;-73
2022/06/11 01:54:40;;;;;;;9.90;6.70;;;;;;;17.04;92.12;98870.25;4402126;32;20122;-73
2022/06/11 01:57:41;;;;;;;12.00;6.82;;;;;;;17.00;91.88;98866.31;4357359;32;20122;-73
2022/06/11 02:00:20;;;;;;;9.85;6.57;;;;;;;16.96;91.98;98865.03;4359227;32;20580;-73
2022/06/11 02:03:21;;;;;;;11.65;7.18;;;;;;;17.01;91.51;98867.97;4359245;32;20103;-73
2022/06/11 02:06:28;;;;;;;8.85;6.43;;;;;;;17.07;91.16;98871.72;4521362;31;203656;-72
2022/06/11 02:09:28;;;;;;;11.40;7.32;;;;;;;16.98;90.66;98873.59;4512717;31;20087;-72
2022/06/11 02:12:11;;;;;;;11.05;7.35;;;;;;;17.07;90.20;98877.84;4511665;31;20493;-72
2022/06/11 02:14:54;;;;;;;10.75;7.12;;;;;;;17.05;90.65;98881.66;4512904;31;20088;-72
2022/06/11 02:17:25;;;;;;;11.27;7.53;;;;;;;17.00;91.45;98884.84;4511747;31;20095;-72
2022/06/11 02:19:58;;;;;;;10.23;6.62;;;;;;;16.95;92.09;98884.53;4513057;31;20088;-72
2022/06/11 02:22:35;;;;;;;10.57;6.35;;;;;;;16.94;91.56;98885.53;4512820;31;20483;-72
2022/06/11 02:25:27;;;;;;;10.55;6.87;;;;;;;16.92;92.17;98882.25;4511514;31;20106;-72
2022/06/11 02:27:58;;;;;;;9.30;6.75;;;;;;;16.91;92.44;98884.09;4511696;31;20122;-72
2022/06/11 02:30:28;;;;;;;10.20;6.75;;;;;;;16.82;93.21;98885.91;4511425;31;20096;-72
2022/06/11 02:32:56;;;;;;;10.90;7.45;;;;;;;16.82;92.98;98882.44;4512581;31;20158;-72
2022/06/11 02:35:31;;;;;;;10.35;7.10;;;;;;;16.78;92.89;98892.53;4511496;31;20670;-72
2022/06/11 02:37:59;;;;;;;10.95;7.40;;;;;;;16.76;92.72;98885.78;4511477;31;20518;-72
2022/06/11 02:40:32;;;;;;;13.80;7.93;;;;;;;16.68;93.59;98884.84;4512657;31;20556;-72
2022/06/11 02:42:59;;;;;;;13.65;8.15;;;;;;;16.53;96.31;98888.37;4511220;31;20088;-72
2022/06/11 02:45:26;;;;;;;12.05;7.45;;;;;;;16.41;97.18;98891.41;4512818;31;20108;-72
2022/06/11 02:47:54;;;;;;;10.63;7.57;;;;;;;16.39;97.44;98884.62;4512629;31;20104;-72
2022/06/11 02:50:28;;;;;;;11.95;7.90;;;;;;;16.29;98.08;98896.25;4512636;31;20096;-72
2022/06/11 02:52:56;;;;;;;11.23;8.25;;;;;;;16.24;98.39;98897.75;4512742;31;20136;-72
2022/06/11 02:55:24;;;;;;;11.25;8.23;;;;;;;16.32;97.30;98898.56;4506545;31;20104;-72
2022/06/11 02:57:51;;;;;;;10.65;7.70;;;;;;;16.35;97.01;98899.19;4511980;31;20095;-74
2022/06/11 03:00:29;;;;;;;9.43;7.50;;;;;;;16.38;96.92;98899.69;4512538;31;20548;-74
2022/06/11 03:02:56;;;;;;;9.88;7.65;;;;;;;16.40;96.69;98895.03;4496796;31;20533;-74
2022/06/11 03:05:28;;;;;;;10.35;7.72;;;;;;;16.39;96.71;98893.38;4496076;31;20112;-74
2022/06/11 03:07:56;;;;;;;10.32;8.50;;;;;;;16.42;96.37;98903.63;4506580;31;20087;-74
2022/06/11 03:10:25;;;;;;;13.95;8.45;;;;;;;16.51;95.93;98899.12;4496577;31;20492;-74
2022/06/11 03:12:53;;;;;;;14.00;7.80;;;;;;;16.47;96.33;98898.66;4496220;31;20151;-74
2022/06/11 03:15:21;;;;;;;12.15;8.38;;;;;;;16.49;96.27;98895.84;4493848;32;20111;-74
2022/06/11 03:17:50;;;;;;;9.40;7.60;;;;;;;16.48;96.08;98894.19;4485863;32;20096;-74
2022/06/11 03:20:19;;;;;;;13.13;9.50;;;;;;;16.45;96.26;98894.53;4485969;31;20092;-74
2022/06/11 03:22:46;;;;;;;11.12;8.55;;;;;;;16.49;96.27;98891.38;4488064;31;20587;-74
2022/06/11 03:25:13;;;;;;;10.82;7.78;;;;;;;16.53;95.89;98894.47;4501705;31;20112;-74
2022/06/11 03:27:40;;;;;;;10.40;8.00;;;;;;;16.53;95.57;98901.59;4501554;31;20377;-74
2022/06/11 03:30:09;;;;;;;11.18;8.20;;;;;;;16.58;95.72;98896.59;4501688;31;20157;-74
2022/06/11 03:32:37;;;;;;;12.45;7.85;;;;;;;16.65;94.09;98895.78;4501589;31;20974;-74
2022/06/11 03:35:05;;;;;;;10.35;7.75;;;;;;;16.67;93.49;98895.59;4501781;31;20445;-74
2022/06/11 03:37:33;;;;;;;13.52;8.45;;;;;;;16.77;92.51;98908.59;4501563;31;20153;-74
2022/06/11 03:40:01;;;;;;;11.70;8.02;;;;;;;16.78;92.66;98913.72;4501654;31;20118;-74
2022/06/11 03:42:28;;;;;;;12.20;7.62;;;;;;;16.83;92.05;98919.28;4501330;31;20141;-74
2022/06/11 03:44:55;;;;;;;10.20;7.65;;;;;;;16.87;91.96;98927.75;4500121;31;20110;-74
2022/06/11 03:47:23;;;;;;;13.13;8.00;;;;;;;16.94;91.23;98931.38;4501814;31;20103;-74
2022/06/11 03:49:50;;;;;;;11.40;7.57;;;;;;;17.02;91.18;98927.84;4496078;31;20088;-74
2022/06/11 03:52:17;;;;;;;11.88;7.60;;;;;;;17.10;90.62;98930.44;4485894;31;20092;-74
2022/06/11 03:54:46;;;;;;;9.45;7.62;;;;;;;17.04;91.37;98917.91;4501510;31;20092;-74
2022/06/11 03:57:13;;;;;;;10.60;7.53;;;;;;;17.12;91.39;98922.31;4501308;31;20080;-74
2022/06/11 03:59:40;;;;;;;11.20;8.07;;;;;;;17.20;91.35;98917.78;4501553;31;20216;-74
2022/06/11 04:02:07;;;;;;;12.20;7.70;;;;;;;17.25;91.28;98917.25;4501301;31;20115;-74
2022/06/11 04:04:35;;;;;;;10.07;8.05;;;;;;;17.21;91.64;98921.25;4501162;31;20088;-74
2022/06/11 04:07:02;;;;;;;11.70;7.95;;;;;;;17.35;90.82;98917.84;4491318;31;20099;-74
2022/06/11 04:09:33;;;;;;;9.52;7.62;;;;;;;17.47;90.48;98925.38;4485600;31;20212;-74
2022/06/11 04:12:01;;;;;;;9.57;7.15;;;;;;;17.45;90.69;98928.19;4485424;32;20084;-74
2022/06/11 04:14:28;;;;;;;12.18;7.70;;;;;;;17.52;90.89;98928.31;4485384;31;20080;-74
2022/06/11 04:16:58;;;;;;;9.68;7.43;;;;;;;17.59;90.23;98931.06;4485503;31;20428;-74
2022/06/11 04:19:29;;;;;;;9.65;7.47;;;;;;;17.80;89.23;98936.50;4485814;32;20080;-74
2022/06/11 04:21:57;;;;;;;8.25;6.87;;;;;;;18.02;88.34;98923.44;4485573;31;20194;-74
2022/06/11 04:24:26;;;;;;;9.68;7.07;;;;;;;18.18;85.50;98917.13;4485621;31;20108;-74
2022/06/11 04:26:56;;;;;;;14.98;7.25;;;;;;;18.36;84.74;98919.41;4485192;31;20466;-74
2022/06/11 04:29:28;;;;;;;9.10;6.50;;;;;;;18.61;83.75;98920.75;4499908;31;20076;-74
2022/06/11 04:31:57;;;;;;;7.72;6.20;;;;;;;18.87;82.30;98922.09;4501318;31;20460;-74
2022/06/11 04:34:26;;;;;;;8.20;6.55;;;;;;;18.86;81.76;98923.09;4494265;31;20119;-74
2022/06/11 04:36:53;;;;;;;8.30;6.07;;;;;;;18.62;82.45;98914.44;4487653;31;20126;-74
2022/06/11 04:39:24;;;;;;;10.95;6.85;;;;;;;18.64;82.67;98911.63;4486665;31;20104;-74
2022/06/11 04:41:51;;;;;;;8.98;6.60;;;;;;;18.61;83.29;98915.44;4486189;31;20548;-74
2022/06/11 04:44:19;;;;;;;7.87;6.20;;;;;;;18.83;83.14;98925.28;4500865;31;20642;-74
2022/06/11 04:46:47;;;;;;;9.20;6.35;;;;;;;18.90;82.69;98927.03;4487408;31;20481;-74
2022/06/11 04:49:14;;;;;;;7.97;6.05;;;;;;;18.82;82.69;98921.81;4485406;31;20115;-74
2022/06/11 04:51:41;;;;;;;7.68;6.25;;;;;;;18.74;82.84;98925.41;4485318;31;20111;-74
2022/06/11 04:54:09;;;;;;;8.75;6.28;;;;;;;18.68;82.83;98915.50;4485335;31;20142;-74
2022/06/11 04:56:37;;;;;;;7.25;5.80;;;;;;;18.77;85.08;98929.50;4485255;31;20108;-73
2022/06/11 04:59:04;;;;;;;8.32;6.80;;;;;;;18.64;85.30;98927.53;4485339;31;20084;-72
2022/06/11 05:01:39;;;;;;;8.85;7.40;;;;;;;18.53;86.02;98933.28;4484898;31;20096;-72
2022/06/11 05:04:08;;;;;;;7.68;6.30;;;;;;;18.19;87.23;98942.63;4484917;31;20127;-72
2022/06/11 05:06:39;;;;;;;9.38;5.80;;;;;;;18.28;88.18;98941.53;4484977;31;20197;-72
2022/06/11 05:09:09;;;;;;;10.50;7.28;;;;;;;18.32;88.49;98940.19;4485457;31;20084;-72
2022/06/11 05:11:37;;;;;;;8.95;6.35;;;;;;;18.44;89.01;98945.84;4485079;31;20401;-72
2022/06/11 05:14:04;;;;;;;8.93;7.53;;;;;;;18.20;89.46;98953.06;4484912;31;20089;-73
2022/06/11 05:16:32;;;;;;;7.97;6.93;;;;;;;18.25;89.89;98955.16;4487729;31;20273;-72
2022/06/11 05:18:59;;;;;;;9.15;7.53;;;;;;;18.26;90.45;98959.47;4499287;31;20445;-72
2022/06/11 05:21:26;;;;;;;8.68;7.68;;;;;;;18.28;90.69;98954.81;4498984;31;20120;-72
2022/06/11 05:23:54;;;;;;;9.27;7.50;;;;;;;18.31;90.53;98965.03;4499298;31;20119;-72
2022/06/11 05:26:37;;;;;;;7.62;6.43;;;;;;;18.31;90.61;98970.34;4500433;31;20079;-72
2022/06/11 05:29:06;;;;;;;8.43;6.93;;;;;;;18.27;90.69;98969.91;4492070;31;20138;-72
2022/06/11 05:31:34;;;;;;;11.18;7.32;;;;;;;18.44;89.98;98973.19;4495170;31;20091;-75
2022/06/11 05:34:02;;;;;;;8.48;6.65;;;;;;;18.60;89.18;98974.81;4500301;31;20099;-73
2022/06/11 05:36:29;;;;;;;10.43;6.87;;;;;;;18.77;87.87;98971.97;4500718;31;20574;-75
2022/06/11 05:38:56;;;;;;;7.90;6.32;;;;;;;18.95;86.45;98969.78;4500134;31;20113;-75
2022/06/11 05:41:23;;;;;;;8.15;6.32;;;;;;;18.86;86.91;98970.88;4500260;31;20429;-73
2022/06/11 05:43:51;;;;;;;8.10;6.72;;;;;;;19.09;86.48;98973.44;4500167;31;20096;-73
2022/06/11 05:46:21;;;;;;;8.57;6.85;;;;;;;19.32;85.02;98961.81;4500266;31;20097;-74
2022/06/11 05:48:53;;;;;;;8.50;6.82;;;;;;;19.29;85.18;98970.16;4497673;31;20095;-73
2022/06/11 05:51:24;;;;;;;9.57;7.97;;;;;;;19.28;86.00;98981.78;4488089;31;20103;-73
2022/06/11 05:53:54;;;;;;;9.13;7.12;;;;;;;19.13;86.43;98984.50;4491141;31;20141;-73
2022/06/11 05:56:21;;;;;;;8.77;6.72;;;;;;;19.07;86.67;98982.59;4491081;31;20130;-73
2022/06/11 05:58:55;;;;;;;8.10;7.28;;;;;;;18.90;87.13;98981.97;4498788;31;20087;-73
2022/06/11 06:01:32;;;;;;;9.63;7.18;;;;;;;18.87;88.99;98985.00;4491340;31;20447;-73
2022/06/11 06:03:59;;;;;;;8.65;7.15;;;;;;;18.96;87.48;98982.03;4485110;31;20084;-73
2022/06/11 06:06:27;;;;;;;10.10;6.85;;;;;;;18.95;87.67;98992.84;4488304;31;20100;-73
2022/06/11 06:08:54;;;;;;;9.70;7.37;;;;;;;18.86;88.08;98994.78;4500056;31;20096;-73
2022/06/11 06:11:21;;;;;;;7.90;6.62;;;;;;;18.91;88.42;98992.41;4499993;31;20171;-73
2022/06/11 06:13:48;;;;;;;10.05;7.18;;;;;;;19.06;87.90;98994.19;4497211;31;20118;-73
2022/06/11 06:16:27;;;;;;;12.18;7.20;;;;;;;19.30;86.64;98993.88;4500001;31;20130;-73
2022/06/11 06:18:55;;;;;;;9.13;7.12;;;;;;;19.54;85.05;98994.50;4494098;31;20111;-73
2022/06/11 06:21:24;;;;;;;9.35;6.80;;;;;;;19.88;84.64;98998.34;4499897;31;20125;-73
2022/06/11 06:23:52;;;;;;;10.93;6.93;;;;;;;20.25;82.87;98992.88;4499415;31;20122;-73
2022/06/11 06:26:20;;;;;;;12.52;7.43;;;;;;;20.30;82.99;98996.63;4499852;31;20130;-73
2022/06/11 06:28:47;;;;;;;11.43;7.40;;;;;;;20.43;81.16;98995.06;4491210;31;20097;-73
2022/06/11 06:31:15;;;;;;;11.10;6.53;;;;;;;20.63;80.19;98998.62;4483660;31;20096;-73
2022/06/11 06:33:43;;;;;;;9.57;7.30;;;;;;;21.00;80.09;98995.75;4483659;31;20100;-74
2022/06/11 06:36:11;;;;;;;9.60;6.78;;;;;;;21.33;79.94;98995.84;4483695;32;20450;-73
2022/06/11 06:38:39;;;;;;;8.65;6.40;;;;;;;21.59;76.59;98984.47;4483716;31;20160;-74
2022/06/11 06:41:07;;;;;;;10.07;6.53;;;;;;;21.66;76.27;98986.31;4483826;32;20100;-73
2022/06/11 06:43:34;;;;;;;9.85;6.57;;;;;;;21.52;76.33;98988.97;4483167;31;20092;-73
2022/06/11 06:46:02;;;;;;;8.77;6.43;;;;;;;21.50;76.33;98987.50;4482442;31;20525;-73
2022/06/11 06:48:29;;;;;;;7.22;6.28;;;;;;;21.36;75.29;98984.81;4483774;31;20099;-73
2022/06/11 06:50:58;;;;;;;8.70;6.28;;;;;;;21.36;75.43;98984.81;4482987;32;20123;-73
2022/06/11 06:53:26;;;;;;;9.93;6.32;;;;;;;21.33;74.89;98990.53;4485946;31;20097;-73
2022/06/11 06:55:54;;;;;;;7.70;6.22;;;;;;;21.34;76.18;98992.19;4486316;31;20093;-73
2022/06/11 06:58:22;;;;;;;7.85;6.15;;;;;;;21.43;74.67;99001.63;4486051;31;20123;-73
2022/06/11 07:00:50;;;;;;;7.47;5.93;;;;;;;21.50;75.19;99000.84;4485846;31;20092;-73
2022/06/11 07:03:17;;;;;;;7.90;6.40;;;;;;;21.59;75.53;98995.13;4484302;31;20153;-73
2022/06/11 07:05:45;;;;;;;7.00;6.00;;;;;;;21.59;74.08;98988.97;4480678;32;20253;-74
2022/06/11 07:08:12;;;;;;;6.93;6.07;;;;;;;21.79;72.91;99005.81;4484342;31;20123;-74
2022/06/11 07:10:50;;;;;;;10.90;6.40;;;;;;;22.06;72.95;99016.50;4485145;32;20150;-74
2022/06/11 07:13:18;;;;;;;6.32;5.57;;;;;;;22.28;70.21;99009.06;4484250;31;20080;-74
2022/06/11 07:15:47;;;;;;;7.50;5.65;;;;;;;22.28;66.99;99009.06;4485947;31;20097;-74
2022/06/11 07:18:44;;;;;;;6.80;6.10;;;;;;;22.31;70.20;99013.22;4485095;31;20131;-73
2022/06/11 07:21:29;;;;;;;7.40;6.57;;;;;;;22.36;70.88;99009.94;4484000;32;20413;-74
2022/06/11 07:23:58;;;;;;;6.72;5.97;;;;;;;22.16;71.70;99000.06;4483483;32;20149;-74
2022/06/11 07:26:30;;;;;;;7.10;5.78;;;;;;;22.15;71.48;99001.09;4481476;32;20590;-74
2022/06/11 07:29:24;;;;;;;7.18;5.35;;;;;;;22.18;70.95;99007.84;4481625;32;20100;-74
2022/06/11 07:31:56;;;;;;;7.32;6.45;;;;;;;22.30;72.32;99008.88;4481462;32;20131;-74
2022/06/11 07:34:23;;;;;;;6.70;5.78;;;;;;;22.35;70.65;99009.13;4484641;31;20483;-73
2022/06/11 07:36:50;;;;;;;7.32;6.22;;;;;;;22.41;71.43;99007.47;4485412;31;20089;-74
2022/06/11 07:39:18;;;;;;;7.12;5.78;;;;;;;22.34;69.13;99004.78;4484170;32;20449;-74
2022/06/11 07:41:45;;;;;;;6.93;5.97;;;;;;;22.62;70.38;98995.69;4485921;31;20096;-74
2022/06/11 07:44:12;;;;;;;7.93;5.95;;;;;;;22.48;68.95;99008.25;4485489;31;20108;-74
2022/06/11 07:46:39;;;;;;;12.05;5.87;;;;;;;22.48;70.73;99002.91;4485938;31;20093;-74
2022/06/11 07:49:06;;;;;;;7.65;5.95;;;;;;;22.74;69.35;99001.19;4485789;31;20100;-73
2022/06/11 07:51:33;;;;;;;7.62;5.93;;;;;;;22.59;68.54;98990.78;4485766;31;20084;-74
2022/06/11 07:54:01;;;;;;;7.53;6.68;;;;;;;22.64;68.16;99001.66;4485635;32;20161;-74
2022/06/11 07:56:28;;;;;;;6.80;5.72;;;;;;;22.75;69.74;98994.84;4485599;31;20168;-73
2022/06/11 07:58:55;;;;;;;6.10;5.20;;;;;;;22.76;69.87;98991.97;4485634;31;20123;-74
2022/06/11 08:01:22;;;;;;;9.48;5.05;;;;;;;22.86;67.48;98996.84;4485760;31;20088;-74
2022/06/11 08:03:50;;;;;;;7.22;5.22;;;;;;;22.99;67.96;98994.13;4485432;32;20088;-74
2022/06/11 08:06:17;;;;;;;7.87;5.80;;;;;;;23.00;68.46;99005.66;4485397;31;20097;-74
2022/06/11 08:08:45;;;;;;;7.00;5.55;;;;;;;23.10;67.97;99005.22;4485570;31;20089;-74
2022/06/11 08:11:12;;;;;;;7.85;5.30;;;;;;;23.31;69.46;98990.72;4485475;32;20126;-74
2022/06/11 08:13:39;;;;;;;8.45;5.05;;;;;;;23.40;67.98;99000.13;4485349;31;20529;-74
2022/06/11 08:16:07;;;;;;;5.78;5.28;;;;;;;23.43;63.91;99004.22;4485478;31;20092;-74
2022/06/11 08:18:35;;;;;;;5.72;4.90;;;;;;;23.43;64.12;99002.34;4485491;31;20451;-74
2022/06/11 08:21:03;;;;;;;15.50;5.70;;;;;;;23.47;62.27;99006.25;4485565;31;20092;-74
2022/06/11 08:23:30;;;;;;;8.68;5.87;;;;;;;23.55;65.50;99003.31;4485474;31;20080;-74
2022/06/11 08:25:58;;;;;;;6.45;5.28;;;;;;;23.82;65.85;99002.31;4485444;32;20232;-74
2022/06/11 08:28:26;;;;;;;11.32;5.40;;;;;;;23.54;64.08;98998.16;4485447;31;20151;-74
2022/06/11 08:30:53;;;;;;;8.98;5.75;;;;;;;23.69;66.68;99000.53;4485402;31;20527;-74
2022/06/11 08:33:21;;;;;;;5.82;5.25;;;;;;;23.73;66.65;98996.41;4485423;31;20441;-74
2022/06/11 08:35:48;;;;;;;6.60;6.00;;;;;;;23.99;66.89;98997.25;4485414;31;20100;-74
2022/06/11 08:38:15;;;;;;;6.78;5.87;;;;;;;23.95;66.38;98993.38;4485310;31;20518;-74
2022/06/11 08:40:49;;;;;;;6.85;5.72;;;;;;;23.99;66.27;98999.94;4485367;31;20111;-74
2022/06/11 08:43:24;;;;;;;6.12;5.15;;;;;;;23.85;65.16;98999.22;4485193;31;20153;-74
2022/06/11 08:45:59;;;;;;;7.20;5.87;;;;;;;23.96;63.88;98997.69;4485470;31;20085;-74
2022/06/11 08:48:52;;;;;;;7.82;5.43;;;;;;;23.85;63.75;98996.56;4485511;31;20140;-74
2022/06/11 08:51:37;;;;;;;7.32;6.07;;;;;;;24.06;63.48;98998.84;4484296;32;20159;-74
2022/06/11 08:54:32;;;;;;;11.20;5.70;;;;;;;23.96;63.79;98997.69;4485125;32;20480;-74
2022/06/11 08:57:21;;;;;;;6.12;5.12;;;;;;;24.04;64.34;98989.38;4483807;32;20105;-74
2022/06/11 09:00:09;;;;;;;8.02;5.62;;;;;;;23.99;62.51;98998.06;4485326;31;20088;-74
2022/06/11 09:02:40;;;;;;;9.05;5.07;;;;;;;24.18;62.87;98982.88;4485545;32;20096;-74
2022/06/11 09:05:18;;;;;;;6.07;5.07;;;;;;;24.31;62.00;98979.25;4485194;31;20088;-74
2022/06/11 09:08:07;;;;;;;7.50;5.30;;;;;;;24.30;61.80;98982.13;4485524;31;20093;-74
2022/06/11 09:11:19;;;;;;;5.47;4.80;;;;;;;24.39;62.34;98988.84;4485283;31;20107;-74
2022/06/11 09:14:08;;;;;;;6.00;5.20;;;;;;;24.51;59.66;98992.44;4483071;32;20080;-74
2022/06/11 09:17:14;;;;;;;5.70;5.12;;;;;;;24.56;61.26;98979.19;4485267;31;20107;-74
2022/06/11 09:19:56;;;;;;;5.82;4.90;;;;;;;24.25;60.28;98983.66;4485022;32;20093;-74
2022/06/11 09:23:01;;;;;;;6.85;5.80;;;;;;;24.30;61.15;98988.34;4485269;31;20644;-74
2022/06/11 09:25:37;;;;;;;6.62;5.43;;;;;;;24.37;59.52;98993.59;4485076;31;20096;-74
2022/06/11 09:28:22;;;;;;;6.15;4.90;;;;;;;24.37;62.31;98982.91;4485069;31;20111;-74
2022/06/11 09:31:02;;;;;;;8.15;5.18;;;;;;;24.71;60.92;98973.50;4485296;32;20088;-74
2022/06/11 09:33:40;;;;;;;7.10;5.07;;;;;;;24.85;59.95;98976.81;4485047;31;20661;-74
2022/06/11 09:36:14;;;;;;;7.95;5.18;;;;;;;24.40;61.23;98985.94;4484949;32;20088;-74
2022/06/11 09:39:18;;;;;;;6.43;5.03;;;;;;;23.97;59.87;98975.22;4483607;32;20080;-74
2022/06/11 09:42:01;;;;;;;5.68;5.07;;;;;;;24.23;61.39;98966.97;4484904;31;20210;-74
2022/06/11 09:44:41;;;;;;;5.60;5.07;;;;;;;24.50;61.08;98972.06;4483487;32;20108;-74
2022/06/11 09:47:46;;;;;;;5.30;4.57;;;;;;;24.70;59.60;98973.72;4483595;32;20099;-74
2022/06/11 09:50:29;;;;;;;5.85;4.85;;;;;;;24.85;59.16;98968.78;4435579;32;20219;-73
2022/06/11 09:53:34;;;;;;;5.47;4.85;;;;;;;24.77;58.97;98971.78;4435739;32;20113;-74
2022/06/11 09:56:24;;;;;;;5.80;5.07;;;;;;;24.85;58.11;98970.66;4435612;32;20644;-74
2022/06/11 09:59:40;;;;;;;5.93;4.85;;;;;;;25.39;58.78;98973.44;4435562;32;20096;-74
2022/06/11 10:02:07;;;;;;;15.73;5.55;;;;;;;25.29;59.40;98964.09;4389651;32;20569;-74
2022/06/11 10:04:37;;;;;;;5.18;4.68;;;;;;;25.31;57.75;98970.06;4389568;32;20099;-74
2022/06/11 10:07:10;;;;;;;5.40;4.90;;;;;;;25.02;57.97;98970.84;4389604;32;20133;-74
2022/06/11 10:09:42;;;;;;;6.65;5.20;;;;;;;25.10;58.85;98971.34;4389555;32;20155;-74
2022/06/11 10:12:29;;;;;;;5.53;5.03;;;;;;;25.50;57.92;98975.34;4389760;32;20093;-74
2022/06/11 10:15:12;;;;;;;6.05;4.90;;;;;;;25.93;56.15;98968.88;4389651;32;20102;-74
2022/06/11 10:18:02;;;;;;;6.07;4.50;;;;;;;26.15;55.01;98976.41;4389753;32;20103;-74
2022/06/11 10:20:36;;;;;;;7.60;4.72;;;;;;;25.83;53.57;98963.28;4389671;32;20133;-74
2022/06/11 10:23:14;;;;;;;5.00;4.40;;;;;;;26.13;53.69;98962.38;4389634;32;20090;-74
2022/06/11 10:25:56;;;;;;;5.50;4.75;;;;;;;26.61;54.35;98958.56;4401383;32;20132;-74
2022/06/11 10:28:31;;;;;;;5.18;4.35;;;;;;;26.99;54.31;98959.88;4440062;32;20127;-74
2022/06/11 10:31:25;;;;;;;4.20;3.80;;;;;;;27.08;53.29;98963.00;4437067;32;20101;-74
2022/06/11 10:34:14;;;;;;;4.57;4.07;;;;;;;26.48;50.37;98966.88;4437064;32;20657;-74
2022/06/11 10:36:48;;;;;;;6.85;4.22;;;;;;;26.50;52.27;98960.25;4437331;32;20545;-74
2022/06/11 10:39:26;;;;;;;4.72;4.28;;;;;;;26.58;51.21;98952.88;4462609;32;20716;-74
2022/06/11 10:41:58;;;;;;;5.70;4.15;;;;;;;26.47;52.85;98952.66;4469415;32;20084;-74
2022/06/11 10:44:38;;;;;;;5.03;4.53;;;;;;;26.58;53.18;98956.37;4470488;32;20521;-74
2022/06/11 10:47:20;;;;;;;4.07;3.60;;;;;;;26.50;51.28;98952.19;4470375;32;20117;-74
2022/06/11 10:50:09;;;;;;;5.47;4.30;;;;;;;27.11;50.73;98962.53;4470562;32;20097;-74
2022/06/11 10:52:48;;;;;;;5.12;3.67;;;;;;;26.84;52.75;98951.53;4470457;32;20088;-74
2022/06/11 10:55:27;;;;;;;10.68;4.25;;;;;;;26.89;52.29;98959.72;4469443;32;20138;-74
2022/06/11 10:57:55;;;;;;;4.40;4.00;;;;;;;26.94;52.43;98951.72;4469331;32;20442;-74
2022/06/11 11:00:27;;;;;;;5.43;4.93;;;;;;;26.96;50.91;98959.56;4469317;32;20096;-74
2022/06/11 11:03:04;;;;;;;5.10;3.72;;;;;;;27.22;51.10;98963.53;4469457;32;20114;-74
2022/06/11 11:05:59;;;;;;;3.92;3.53;;;;;;;27.19;51.06;98953.25;4469041;32;20784;-74
2022/06/11 11:08:27;;;;;;;4.80;3.70;;;;;;;26.70;48.91;98959.88;4470574;32;20116;-74
2022/06/11 11:10:55;;;;;;;5.12;3.90;;;;;;;27.04;50.03;98946.56;4470300;32;20169;-74
2022/06/11 11:13:34;;;;;;;4.40;3.50;;;;;;;26.49;49.40;98949.72;4469138;32;20088;-74
2022/06/11 11:16:19;;;;;;;4.47;4.03;;;;;;;26.29;49.18;98956.28;4470370;32;20077;-74
2022/06/11 11:19:17;;;;;;;4.22;3.45;;;;;;;25.83;51.37;98957.91;4470436;32;20156;-74
2022/06/11 11:21:54;;;;;;;5.10;3.85;;;;;;;25.84;52.09;98952.31;4469350;32;20438;-74
2022/06/11 11:24:25;;;;;;;5.45;3.87;;;;;;;26.04;51.09;98956.53;4469018;32;20080;-74
2022/06/11 11:27:04;;;;;;;3.83;3.47;;;;;;;26.20;52.28;98952.34;4470393;32;20081;-74
2022/06/11 11:29:33;;;;;;;3.58;3.28;;;;;;;26.19;50.74;98945.31;4469082;32;20093;-74
2022/06/11 11:32:06;;;;;;;3.70;3.40;;;;;;;26.33;51.70;98941.34;4480012;32;20108;-74
2022/06/11 11:34:44;;;;;;;3.75;3.30;;;;;;;26.21;51.17;98943.25;4484947;32;20080;-74
2022/06/11 11:37:14;;;;;;;3.90;3.15;;;;;;;26.65;50.42;98930.19;4484212;32;20730;-74
2022/06/11 11:39:56;;;;;;;3.70;3.40;;;;;;;26.73;50.21;98921.75;4485891;31;20077;-74
2022/06/11 11:42:26;;;;;;;3.50;3.20;;;;;;;26.80;49.13;98923.50;4485713;32;20126;-74
2022/06/11 11:44:57;;;;;;;3.97;3.15;;;;;;;27.17;48.86;98917.72;4485859;31;20083;-74
2022/06/11 11:47:29;;;;;;;4.95;3.28;;;;;;;26.99;47.79;98927.63;4485795;31;20133;-74
2022/06/11 11:50:20;;;;;;;3.65;3.35;;;;;;;26.90;47.70;98921.84;4485861;31;20080;-74
2022/06/11 11:52:52;;;;;;;3.30;3.00;;;;;;;27.01;47.02;98922.84;4436433;32;20100;-74
2022/06/11 11:55:25;;;;;;;7.62;3.35;;;;;;;27.03;47.62;98909.97;4424049;32;20216;-74
2022/06/11 11:57:56;;;;;;;3.80;3.22;;;;;;;26.95;48.85;98910.34;4436651;32;20093;-74
2022/06/11 12:00:26;;;;;;;4.20;3.25;;;;;;;26.72;48.19;98906.72;4423961;32;20109;-74
2022/06/11 12:02:56;;;;;;;3.37;3.08;;;;;;;27.10;47.43;98912.47;4436502;32;20148;-74